createdAt,value
2023-05-21T00:02:05.061Z,9.90
2023-05-21T00:07:10.559Z,9.10
2023-05-21T00:12:12.664Z,10.23
2023-05-21T00:17:14.798Z,9.90
2023-05-21T00:22:17.230Z,10.90
2023-05-21T00:27:19.282Z,9.00
2023-05-21T00:32:21.565Z,10.27
2023-05-21T00:37:24.958Z,11.38
2023-05-21T00:42:27.562Z,8.30
2023-05-21T00:47:29.998Z,10.50
2023-05-21T00:52:32.162Z,9.45
2023-05-21T00:57:34.952Z,10.40
2023-05-21T01:02:37.730Z,10.52
2023-05-21T01:07:41.980Z,12.55
2023-05-21T01:12:45.244Z,12.07
2023-05-21T01:17:49.084Z,12.07
2023-05-21T01:22:56.129Z,9.65
2023-05-21T01:27:58.263Z,10.38
2023-05-21T01:33:05.236Z,8.40
2023-05-21T01:38:17.712Z,9.40
2023-05-21T01:43:20.905Z,10.15
2023-05-21T01:48:24.661Z,8.75
2023-05-21T01:53:26.965Z,9.25
2023-05-21T01:58:29.057Z,9.57
2023-05-21T02:03:31.849Z,10.25
2023-05-21T02:08:33.992Z,10.40
2023-05-21T02:13:40.942Z,8.77
2023-05-21T02:18:46.768Z,9.30
2023-05-21T02:23:48.831Z,11.55
2023-05-21T02:28:53.074Z,5.72
2023-05-21T02:33:55.157Z,6.03
2023-05-21T02:38:58.047Z,5.20
2023-05-21T02:44:00.101Z,8.35
2023-05-21T02:54:04.492Z,8.35
2023-05-21T02:59:07.019Z,10.60
2023-05-21T03:04:09.022Z,7.80
2023-05-21T03:14:13.716Z,9.13
2023-05-21T03:19:15.886Z,7.80
2023-05-21T03:24:18.085Z,7.97
2023-05-21T03:29:20.172Z,8.68
2023-05-21T03:39:24.255Z,8.35
2023-05-21T03:44:26.374Z,9.88
2023-05-21T03:54:30.314Z,10.63
2023-05-21T04:04:34.239Z,5.57
2023-05-21T04:09:36.848Z,6.35
2023-05-21T04:14:38.994Z,6.55
2023-05-21T04:19:41.216Z,6.53
2023-05-21T04:24:43.910Z,8.82
2023-05-21T04:29:45.953Z,6.72
2023-05-21T04:34:47.974Z,4.75
2023-05-21T04:39:49.987Z,5.78
2023-05-21T04:44:52.116Z,6.35
2023-05-21T04:49:54.159Z,6.78
2023-05-21T04:54:56.169Z,4.07
2023-05-21T04:59:58.237Z,5.45
2023-05-21T05:05:00.312Z,4.57
2023-05-21T05:10:02.334Z,4.63
2023-05-21T05:15:04.599Z,6.70
2023-05-21T05:20:08.858Z,3.97
2023-05-21T05:25:11.020Z,5.10
2023-05-21T05:30:13.219Z,5.65
2023-05-21T05:35:15.286Z,3.67
2023-05-21T05:40:17.434Z,5.85
2023-05-21T05:45:20.220Z,6.38
2023-05-21T05:50:22.373Z,5.15
2023-05-21T05:55:25.817Z,6.25
2023-05-21T06:00:27.920Z,3.90
2023-05-21T06:05:30.227Z,4.40
2023-05-21T06:10:32.336Z,5.03
2023-05-21T06:15:34.887Z,5.35
2023-05-21T06:20:37.585Z,4.15
2023-05-21T06:25:41.189Z,3.58
2023-05-21T06:30:43.346Z,3.67
2023-05-21T06:35:45.461Z,3.95
2023-05-21T06:40:50.122Z,4.78
2023-05-21T06:45:52.151Z,3.78
2023-05-21T06:50:54.334Z,4.78
2023-05-21T06:55:56.602Z,3.38
2023-05-21T07:00:59.582Z,3.97
2023-05-21T07:06:01.779Z,3.08
2023-05-21T07:11:04.004Z,4.30
2023-05-21T07:16:07.027Z,2.95
2023-05-21T07:21:09.244Z,3.88
2023-05-21T07:26:12.061Z,2.78
2023-05-21T07:31:14.209Z,6.93
2023-05-21T07:36:16.434Z,3.58
2023-05-21T07:41:18.935Z,4.80
2023-05-21T07:46:21.296Z,2.97
2023-05-21T07:51:23.717Z,6.07
2023-05-21T07:56:27.087Z,3.85
2023-05-21T08:01:33.423Z,5.28
2023-05-21T08:12:02.208Z,3.10
2023-05-21T08:17:04.567Z,4.70
2023-05-21T08:22:08.627Z,4.20
2023-05-21T08:27:10.970Z,2.47
2023-05-21T08:32:13.182Z,2.72
2023-05-21T08:37:15.443Z,2.42
2023-05-21T08:42:37.034Z,2.85
2023-05-21T08:47:44.977Z,2.17
2023-05-21T08:52:47.438Z,3.72
2023-05-21T08:57:49.539Z,1.50
2023-05-21T09:02:54.853Z,1.85
2023-05-21T09:08:07.553Z,3.20
2023-05-21T09:13:10.784Z,3.28
2023-05-21T09:18:13.632Z,2.63
2023-05-21T09:23:18.731Z,2.72
2023-05-21T09:28:21.228Z,2.30
2023-05-21T09:33:27.873Z,3.03
2023-05-21T09:38:30.876Z,5.32
2023-05-21T09:43:33.172Z,1.83
2023-05-21T09:48:37.135Z,2.38
2023-05-21T09:53:54.703Z,2.72
2023-05-21T09:59:02.337Z,1.90
2023-05-21T10:04:08.227Z,4.65
2023-05-21T10:09:12.634Z,3.05
2023-05-21T10:14:22.896Z,2.85
2023-05-21T10:19:25.891Z,2.47
2023-05-21T10:24:29.292Z,2.42
2023-05-21T10:29:32.780Z,2.83
2023-05-21T10:34:36.438Z,2.25
2023-05-21T10:39:39.904Z,2.40
2023-05-21T10:45:00.861Z,2.47
2023-05-21T10:50:42.023Z,4.63
2023-05-21T10:56:08.879Z,4.28
2023-05-21T11:01:13.102Z,3.53
2023-05-21T11:06:25.585Z,3.95
2023-05-21T11:11:45.194Z,1.60
2023-05-21T11:16:47.521Z,3.58
2023-05-21T11:21:56.020Z,4.30
2023-05-21T11:27:06.630Z,3.50
2023-05-21T11:32:10.349Z,1.83
2023-05-21T11:37:18.846Z,2.90
2023-05-21T11:42:39.122Z,3.95
2023-05-21T11:47:42.334Z,2.33
2023-05-21T11:52:45.534Z,3.15
2023-05-21T11:57:48.683Z,2.78
2023-05-21T12:02:52.508Z,1.98
2023-05-21T12:07:55.908Z,2.65
2023-05-21T12:12:58.242Z,2.15
2023-05-21T12:18:01.469Z,2.88
2023-05-21T12:23:03.542Z,2.35
2023-05-21T12:28:05.867Z,2.95
2023-05-21T12:33:08.638Z,2.78
2023-05-21T12:38:10.971Z,3.17
2023-05-21T12:43:13.322Z,4.72
2023-05-21T12:48:15.307Z,2.95
2023-05-21T12:53:17.410Z,4.28
2023-05-21T12:58:22.528Z,2.83
2023-05-21T13:03:26.922Z,2.65
2023-05-21T13:08:29.813Z,2.65
2023-05-21T13:13:32.495Z,2.63
2023-05-21T13:18:34.800Z,5.10
2023-05-21T13:23:38.254Z,1.75
2023-05-21T13:28:42.500Z,3.35
2023-05-21T13:33:44.990Z,2.33
2023-05-21T13:38:49.316Z,2.67
2023-05-21T13:43:51.571Z,2.60
2023-05-21T13:48:53.720Z,3.05
2023-05-21T13:53:56.854Z,2.63
2023-05-21T13:58:59.124Z,4.53
2023-05-21T14:04:07.188Z,2.35
2023-05-21T14:09:09.429Z,5.07
2023-05-21T14:14:14.590Z,3.15
2023-05-21T14:19:17.182Z,3.40
2023-05-21T14:24:20.497Z,3.22
2023-05-21T14:29:22.572Z,2.47
2023-05-21T14:34:28.940Z,2.22
2023-05-21T14:39:31.877Z,3.85
2023-05-21T14:44:36.615Z,3.00
2023-05-21T14:50:00.471Z,2.28
2023-05-21T14:55:36.630Z,3.13
2023-05-21T15:00:43.320Z,3.35
2023-05-21T15:05:47.403Z,2.70
2023-05-21T15:10:51.553Z,4.15
2023-05-21T15:15:53.834Z,4.80
2023-05-21T15:20:56.420Z,3.80
2023-05-21T15:25:58.586Z,3.13
2023-05-21T15:31:01.366Z,2.83
2023-05-21T15:36:03.947Z,2.67
2023-05-21T15:41:06.708Z,3.88
2023-05-21T15:46:08.740Z,2.60
2023-05-21T15:51:11.203Z,2.40
2023-05-21T15:56:13.777Z,3.45
2023-05-21T16:01:16.247Z,3.08
2023-05-21T16:06:18.429Z,1.90
2023-05-21T16:11:21.759Z,2.70
2023-05-21T16:16:24.870Z,2.28
2023-05-21T16:21:27.260Z,2.80
2023-05-21T16:26:29.348Z,2.65
2023-05-21T16:31:31.922Z,2.38
2023-05-21T16:36:34.101Z,2.33
2023-05-21T16:41:36.439Z,3.17
2023-05-21T16:46:38.896Z,2.17
2023-05-21T16:51:43.301Z,2.65
2023-05-21T16:56:46.712Z,2.55
2023-05-21T17:01:49.374Z,2.92
2023-05-21T17:06:51.373Z,2.88
2023-05-21T17:11:53.529Z,3.30
2023-05-21T17:16:55.612Z,2.58
2023-05-21T17:21:58.185Z,3.95
2023-05-21T17:27:00.936Z,5.22
2023-05-21T17:32:03.553Z,3.92
2023-05-21T17:37:05.962Z,3.83
2023-05-21T17:42:08.157Z,3.15
2023-05-21T17:47:10.481Z,2.63
2023-05-21T17:52:15.215Z,2.53
2023-05-21T17:57:20.731Z,2.42
2023-05-21T18:02:25.951Z,3.03
2023-05-21T18:07:28.695Z,4.43
2023-05-21T18:12:30.900Z,4.55
2023-05-21T18:17:34.541Z,2.97
2023-05-21T18:22:38.816Z,4.18
2023-05-21T18:27:41.414Z,3.95
2023-05-21T18:32:44.860Z,4.53
2023-05-21T18:37:48.981Z,4.28
2023-05-21T18:42:53.070Z,4.43
2023-05-21T18:48:00.316Z,3.90
2023-05-21T18:53:03.404Z,3.17
2023-05-21T18:58:07.993Z,4.45
2023-05-21T19:03:10.166Z,3.67
2023-05-21T19:08:14.274Z,3.17
2023-05-21T19:13:20.157Z,7.30
2023-05-21T19:18:22.831Z,3.83
2023-05-21T19:23:41.377Z,4.80
2023-05-21T19:28:54.808Z,4.88
2023-05-21T19:34:11.983Z,3.25
2023-05-21T19:39:15.108Z,6.18
2023-05-21T19:44:20.467Z,7.88
2023-05-21T19:49:30.839Z,5.63
2023-05-21T20:00:22.060Z,4.85
2023-05-21T20:05:36.502Z,5.93
2023-05-21T20:10:39.532Z,4.45
2023-05-21T20:16:02.013Z,6.75
2023-05-21T20:45:07.607Z,4.32
2023-05-21T20:50:14.800Z,5.22
2023-05-21T20:55:19.632Z,7.15
2023-05-21T21:00:23.820Z,6.97
2023-05-21T21:05:27.112Z,9.80
2023-05-21T21:10:29.411Z,7.50
2023-05-21T21:15:32.520Z,10.93
2023-05-21T21:20:35.075Z,8.20
2023-05-21T21:25:37.314Z,8.13
2023-05-21T21:30:41.502Z,8.00
2023-05-21T21:35:43.952Z,9.23
2023-05-21T21:40:46.114Z,8.85
2023-05-21T21:45:48.101Z,9.23
2023-05-21T21:50:50.259Z,8.77
2023-05-21T21:55:52.309Z,10.68
2023-05-21T22:00:54.594Z,7.70
2023-05-21T22:05:56.644Z,10.60
2023-05-21T22:10:59.179Z,10.77
2023-05-21T22:16:02.334Z,10.68
2023-05-21T22:21:09.919Z,10.00
2023-05-21T22:26:12.212Z,10.35
2023-05-21T22:31:14.368Z,9.27
2023-05-21T22:36:16.497Z,10.63
2023-05-21T22:41:18.648Z,9.40
2023-05-21T22:46:20.749Z,10.50
2023-05-21T22:51:22.788Z,8.38
2023-05-21T23:01:27.065Z,9.35
2023-05-21T23:06:29.401Z,8.00
2023-05-21T23:11:31.727Z,8.73
2023-05-21T23:16:33.891Z,7.65
2023-05-21T23:21:36.039Z,8.38
2023-05-21T23:31:40.093Z,8.27
2023-05-21T23:41:44.557Z,8.27
2023-05-21T23:46:46.769Z,9.80
2023-05-21T23:51:51.028Z,9.38
2023-05-21T23:56:53.159Z,10.10
